createdAt,value
2023-05-23T00:01:10.329Z,89.69
2023-05-23T00:03:37.494Z,88.61
2023-05-23T00:06:06.844Z,90.84
2023-05-23T00:08:37.477Z,92.06
2023-05-23T00:11:04.029Z,91.77
2023-05-23T00:13:33.519Z,89.49
2023-05-23T00:16:00.360Z,87.70
2023-05-23T00:18:27.920Z,89.12
2023-05-23T00:20:54.466Z,94.40
2023-05-23T00:23:22.542Z,93.68
2023-05-23T00:25:52.839Z,94.92
2023-05-23T00:28:20.306Z,92.29
2023-05-23T00:30:47.104Z,92.26
2023-05-23T00:33:14.619Z,95.12
2023-05-23T00:35:42.939Z,98.39
2023-05-23T00:38:11.685Z,97.64
2023-05-23T00:40:38.423Z,99.36
2023-05-23T00:43:05.053Z,100.00
2023-05-23T00:45:31.845Z,100.00
2023-05-23T00:48:00.380Z,96.65
2023-05-23T00:50:32.124Z,97.56
2023-05-23T00:53:00.573Z,100.00
2023-05-23T00:55:28.579Z,96.88
2023-05-23T00:57:57.243Z,97.32
2023-05-23T01:00:25.474Z,96.70
2023-05-23T01:02:53.729Z,97.35
2023-05-23T01:05:22.659Z,100.00
2023-05-23T01:07:50.495Z,99.82
2023-05-23T01:10:20.584Z,100.00
2023-05-23T01:13:21.111Z,100.00
2023-05-23T01:15:53.841Z,100.00
2023-05-23T01:18:46.619Z,100.00
2023-05-23T01:21:17.387Z,100.00
2023-05-23T01:24:11.736Z,100.00
2023-05-23T01:27:05.509Z,100.00
2023-05-23T01:29:56.687Z,100.00
2023-05-23T01:32:25.480Z,100.00
2023-05-23T01:34:54.521Z,100.00
2023-05-23T01:37:21.222Z,100.00
2023-05-23T01:39:48.203Z,100.00
2023-05-23T01:42:15.061Z,100.00
2023-05-23T01:44:42.047Z,100.00
2023-05-23T01:47:09.776Z,100.00
2023-05-23T01:49:37.833Z,100.00
2023-05-23T01:52:05.794Z,100.00
2023-05-23T01:54:35.417Z,100.00
2023-05-23T01:57:03.003Z,100.00
2023-05-23T01:59:29.620Z,100.00
2023-05-23T02:01:56.271Z,100.00
2023-05-23T02:04:22.896Z,100.00
2023-05-23T02:06:49.436Z,100.00
2023-05-23T02:09:16.670Z,100.00
2023-05-23T02:11:50.415Z,100.00
2023-05-23T02:14:18.659Z,100.00
2023-05-23T02:16:45.832Z,100.00
2023-05-23T02:19:12.601Z,100.00
2023-05-23T02:21:39.198Z,100.00
2023-05-23T02:24:05.939Z,100.00
2023-05-23T02:26:33.477Z,100.00
2023-05-23T02:29:00.020Z,100.00
2023-05-23T02:31:29.081Z,100.00
2023-05-23T02:33:55.761Z,100.00
2023-05-23T02:36:22.731Z,100.00
2023-05-23T02:38:50.686Z,100.00
2023-05-23T02:41:18.251Z,100.00
2023-05-23T02:43:47.713Z,100.00
2023-05-23T02:46:14.315Z,100.00
2023-05-23T02:48:40.985Z,100.00
2023-05-23T02:51:07.632Z,100.00
2023-05-23T02:53:34.202Z,100.00
2023-05-23T02:56:00.742Z,100.00
2023-05-23T02:58:30.420Z,100.00
2023-05-23T03:00:57.168Z,100.00
2023-05-23T03:03:23.880Z,100.00
2023-05-23T03:05:51.674Z,100.00
2023-05-23T03:08:18.285Z,100.00
2023-05-23T03:10:44.937Z,100.00
2023-05-23T03:13:11.685Z,100.00
2023-05-23T03:15:38.484Z,100.00
2023-05-23T03:18:05.301Z,100.00
2023-05-23T03:20:32.008Z,100.00
2023-05-23T03:22:59.855Z,100.00
2023-05-23T03:25:29.995Z,100.00
2023-05-23T03:27:58.361Z,100.00
2023-05-23T03:30:25.119Z,100.00
2023-05-23T03:32:51.844Z,100.00
2023-05-23T03:35:18.572Z,100.00
2023-05-23T03:37:52.174Z,100.00
2023-05-23T03:40:18.824Z,100.00
2023-05-23T03:42:48.927Z,100.00
2023-05-23T03:45:16.054Z,100.00
2023-05-23T03:47:43.351Z,100.00
2023-05-23T03:54:11.011Z,100.00
2023-05-23T03:56:37.630Z,100.00
2023-05-23T03:59:04.315Z,100.00
2023-05-23T04:01:31.019Z,100.00
2023-05-23T04:03:58.234Z,100.00
2023-05-23T04:06:25.027Z,100.00
2023-05-23T04:08:51.823Z,100.00
2023-05-23T04:11:18.460Z,100.00
2023-05-23T04:13:50.238Z,100.00
2023-05-23T04:16:17.341Z,100.00
2023-05-23T04:18:47.527Z,100.00
2023-05-23T04:21:20.252Z,100.00
2023-05-23T04:23:47.244Z,100.00
2023-05-23T04:26:13.782Z,100.00
2023-05-23T04:28:40.708Z,100.00
2023-05-23T04:31:08.188Z,100.00
2023-05-23T04:33:34.839Z,100.00
2023-05-23T04:36:02.688Z,100.00
2023-05-23T04:38:29.307Z,100.00
2023-05-23T04:40:55.918Z,100.00
2023-05-23T04:43:26.733Z,100.00
2023-05-23T04:45:57.825Z,96.83
2023-05-23T04:48:24.916Z,97.95
2023-05-23T04:50:52.721Z,100.00
2023-05-23T04:53:19.339Z,98.12
2023-05-23T04:55:46.419Z,93.97
2023-05-23T04:58:13.416Z,94.31
2023-05-23T05:00:40.372Z,91.87
2023-05-23T05:03:10.000Z,90.38
2023-05-23T05:05:36.707Z,88.51
2023-05-23T05:08:03.233Z,91.13
2023-05-23T05:10:29.870Z,90.05
2023-05-23T05:12:56.515Z,89.95
2023-05-23T05:15:23.728Z,88.10
2023-05-23T05:17:50.324Z,90.91
2023-05-23T05:20:17.460Z,96.45
2023-05-23T05:22:46.192Z,94.39
2023-05-23T05:25:12.857Z,90.05
2023-05-23T05:27:39.991Z,91.97
2023-05-23T05:30:08.088Z,95.60
2023-05-23T05:32:35.085Z,94.93
2023-05-23T05:35:02.474Z,97.33
2023-05-23T05:37:29.843Z,99.64
2023-05-23T05:39:56.590Z,98.92
2023-05-23T05:42:23.404Z,97.02
2023-05-23T05:44:50.336Z,91.59
2023-05-23T05:47:17.025Z,86.21
2023-05-23T05:49:43.552Z,86.92
2023-05-23T05:52:10.589Z,79.28
2023-05-23T05:54:37.718Z,74.15
2023-05-23T05:57:04.602Z,70.00
2023-05-23T05:59:32.670Z,69.83
2023-05-23T06:01:59.687Z,73.47
2023-05-23T06:04:26.316Z,69.92
2023-05-23T06:06:52.978Z,70.50
2023-05-23T06:09:19.521Z,73.26
2023-05-23T06:11:56.109Z,67.14
2023-05-23T06:14:22.654Z,73.46
2023-05-23T06:16:49.718Z,70.27
2023-05-23T06:19:16.340Z,70.52
2023-05-23T06:21:43.048Z,74.04
2023-05-23T06:24:10.700Z,78.82
2023-05-23T06:26:37.826Z,80.82
2023-05-23T06:29:04.597Z,80.41
2023-05-23T06:31:31.521Z,82.08
2023-05-23T06:33:58.104Z,83.36
2023-05-23T06:36:24.945Z,84.64
2023-05-23T06:38:51.586Z,81.15
2023-05-23T06:41:24.117Z,83.31
2023-05-23T06:43:50.853Z,83.94
2023-05-23T06:46:17.533Z,87.54
2023-05-23T06:48:44.152Z,85.55
2023-05-23T06:51:11.572Z,85.24
2023-05-23T06:53:38.208Z,83.46
2023-05-23T06:56:05.149Z,83.54
2023-05-23T06:58:31.676Z,80.76
2023-05-23T07:00:58.411Z,77.25
2023-05-23T07:03:24.946Z,78.04
2023-05-23T07:05:51.852Z,77.88
2023-05-23T07:08:18.703Z,75.74
2023-05-23T07:10:45.479Z,67.02
2023-05-23T07:13:13.287Z,65.30
2023-05-23T07:15:40.180Z,65.13
2023-05-23T07:18:06.892Z,63.10
2023-05-23T07:20:34.408Z,63.85
2023-05-23T07:23:01.085Z,61.44
2023-05-23T07:25:28.068Z,61.23
2023-05-23T07:27:54.925Z,60.56
2023-05-23T07:30:22.803Z,61.37
2023-05-23T07:32:49.630Z,66.14
2023-05-23T07:35:19.023Z,67.14
2023-05-23T07:37:46.750Z,66.75
2023-05-23T07:40:14.592Z,67.72
2023-05-23T07:42:41.309Z,69.22
2023-05-23T07:45:08.262Z,70.25
2023-05-23T07:47:35.888Z,71.34
2023-05-23T07:50:02.529Z,75.00
2023-05-23T07:52:30.708Z,73.83
2023-05-23T07:54:57.399Z,73.99
2023-05-23T07:57:24.589Z,74.60
2023-05-23T07:59:51.766Z,70.09
2023-05-23T08:02:18.688Z,70.21
2023-05-23T08:04:46.003Z,69.97
2023-05-23T08:07:12.975Z,69.42
2023-05-23T08:09:40.801Z,66.53
2023-05-23T08:12:09.494Z,64.88
2023-05-23T08:14:49.951Z,65.54
2023-05-23T08:17:18.599Z,66.04
2023-05-23T08:19:45.231Z,65.23
2023-05-23T08:22:11.861Z,64.33
2023-05-23T08:24:38.984Z,63.07
2023-05-23T08:27:08.146Z,61.70
2023-05-23T08:29:35.455Z,62.49
2023-05-23T08:32:02.232Z,62.00
2023-05-23T08:34:29.038Z,62.97
2023-05-23T08:36:55.585Z,61.44
2023-05-23T08:39:22.113Z,62.73
2023-05-23T08:41:49.877Z,64.34
2023-05-23T08:44:25.727Z,64.86
2023-05-23T08:46:53.699Z,62.97
2023-05-23T08:49:22.791Z,64.70
2023-05-23T08:51:52.414Z,64.35
2023-05-23T08:54:19.139Z,61.12
2023-05-23T08:56:48.892Z,62.17
2023-05-23T08:59:16.621Z,60.33
2023-05-23T09:01:46.236Z,60.13
2023-05-23T09:04:12.870Z,58.40
2023-05-23T09:06:39.529Z,59.63
2023-05-23T09:09:06.361Z,59.49
2023-05-23T09:11:36.367Z,60.94
2023-05-23T09:14:08.279Z,62.00
2023-05-23T09:16:35.229Z,62.56
2023-05-23T09:19:11.292Z,64.23
2023-05-23T09:21:37.868Z,63.90
2023-05-23T09:24:05.809Z,63.12
2023-05-23T09:26:32.403Z,63.63
2023-05-23T09:28:59.644Z,63.16
2023-05-23T09:31:29.004Z,61.64
2023-05-23T09:33:55.672Z,63.71
2023-05-23T09:36:30.666Z,59.36
2023-05-23T09:38:57.468Z,57.34
2023-05-23T09:41:31.504Z,55.65
2023-05-23T09:43:58.162Z,53.83
2023-05-23T09:46:30.444Z,51.89
2023-05-23T09:48:57.119Z,52.82
2023-05-23T09:51:24.303Z,52.31
2023-05-23T09:53:53.358Z,52.39
2023-05-23T09:56:20.265Z,50.03
2023-05-23T09:58:48.846Z,51.85
2023-05-23T10:01:16.351Z,52.38
2023-05-23T10:03:50.162Z,53.54
2023-05-23T10:06:28.935Z,55.10
2023-05-23T10:09:08.278Z,53.05
2023-05-23T10:11:34.799Z,52.32
2023-05-23T10:14:05.322Z,51.12
2023-05-23T10:16:44.217Z,48.17
2023-05-23T10:19:19.388Z,48.46
2023-05-23T10:22:01.618Z,49.26
2023-05-23T10:24:29.139Z,51.09
2023-05-23T10:26:56.399Z,49.28
2023-05-23T10:29:24.901Z,50.63
2023-05-23T10:31:56.327Z,50.38
2023-05-23T10:34:42.149Z,52.63
2023-05-23T10:37:16.555Z,48.76
2023-05-23T10:40:06.216Z,49.43
2023-05-23T10:42:43.284Z,49.23
2023-05-23T10:45:27.949Z,46.67
2023-05-23T10:47:54.839Z,46.23
2023-05-23T10:50:37.162Z,45.93
2023-05-23T10:53:05.699Z,48.75
2023-05-23T10:55:36.884Z,48.34
2023-05-23T10:58:13.052Z,48.99
2023-05-23T11:00:40.012Z,48.03
2023-05-23T11:03:09.119Z,48.49
2023-05-23T11:05:38.670Z,49.56
2023-05-23T11:08:10.153Z,48.93
2023-05-23T11:11:05.172Z,50.30
2023-05-23T11:13:55.468Z,48.89
2023-05-23T11:16:47.152Z,49.77
2023-05-23T11:19:20.032Z,46.65
2023-05-23T11:21:50.050Z,46.39
2023-05-23T11:24:17.678Z,47.22
2023-05-23T11:27:04.289Z,46.18
2023-05-23T11:29:31.000Z,47.91
2023-05-23T11:31:58.235Z,48.03
2023-05-23T11:34:28.084Z,47.69
2023-05-23T11:36:55.836Z,48.17
2023-05-23T11:39:23.616Z,47.61
2023-05-23T11:42:03.428Z,47.42
2023-05-23T11:44:30.646Z,49.29
2023-05-23T11:47:07.805Z,48.11
2023-05-23T11:49:38.632Z,48.39
2023-05-23T11:52:06.704Z,48.64
2023-05-23T11:54:33.630Z,48.68
2023-05-23T11:57:00.571Z,49.22
2023-05-23T11:59:28.513Z,48.18
2023-05-23T12:01:55.975Z,48.78
2023-05-23T12:04:22.842Z,48.57
2023-05-23T12:06:49.927Z,47.78
2023-05-23T12:09:17.065Z,47.43
2023-05-23T12:11:45.243Z,46.84
2023-05-23T12:14:16.609Z,46.40
2023-05-23T12:16:52.746Z,46.07
2023-05-23T12:19:19.659Z,45.68
2023-05-23T12:21:47.986Z,46.74
2023-05-23T12:24:16.107Z,47.58
2023-05-23T12:26:54.923Z,45.52
2023-05-23T12:29:28.138Z,47.36
2023-05-23T12:31:54.797Z,46.26
2023-05-23T12:34:21.900Z,46.06
2023-05-23T12:36:55.134Z,45.90
2023-05-23T12:39:30.784Z,47.56
2023-05-23T12:42:08.656Z,47.32
2023-05-23T12:44:35.902Z,47.75
2023-05-23T12:47:05.781Z,48.46
2023-05-23T12:49:32.503Z,47.84
2023-05-23T12:51:59.103Z,45.63
2023-05-23T12:54:26.056Z,45.67
2023-05-23T12:56:52.619Z,46.23
2023-05-23T12:59:19.830Z,43.91
2023-05-23T13:01:47.219Z,44.69
2023-05-23T13:04:13.768Z,44.55
2023-05-23T13:06:46.793Z,43.51
2023-05-23T13:09:13.384Z,45.34
2023-05-23T13:11:41.508Z,45.31
2023-05-23T13:14:08.067Z,45.23
2023-05-23T13:16:40.901Z,46.67
2023-05-23T13:19:07.876Z,46.41
2023-05-23T13:21:34.456Z,46.08
2023-05-23T13:24:00.998Z,45.56
2023-05-23T13:26:27.611Z,45.98
2023-05-23T13:28:55.203Z,45.40
2023-05-23T13:31:22.068Z,45.73
2023-05-23T13:33:48.611Z,44.91
2023-05-23T13:36:15.178Z,46.46
2023-05-23T13:38:41.728Z,45.54
2023-05-23T13:41:09.356Z,46.11
2023-05-23T13:43:36.497Z,45.53
2023-05-23T13:46:03.233Z,46.68
2023-05-23T13:48:29.812Z,46.64
2023-05-23T13:50:56.618Z,47.74
2023-05-23T13:53:24.488Z,46.89
2023-05-23T13:55:50.998Z,46.37
2023-05-23T13:58:17.630Z,47.46
2023-05-23T14:00:44.440Z,46.48
2023-05-23T14:03:12.192Z,45.72
2023-05-23T14:05:38.986Z,45.19
2023-05-23T14:08:05.720Z,46.42
2023-05-23T14:10:33.526Z,47.00
2023-05-23T14:13:00.791Z,47.34
2023-05-23T14:15:28.227Z,48.48
2023-05-23T14:18:00.861Z,47.84
2023-05-23T14:20:27.702Z,48.59
2023-05-23T14:22:54.299Z,48.95
2023-05-23T14:25:20.915Z,48.94
2023-05-23T14:27:47.534Z,47.95
2023-05-23T14:30:14.183Z,47.94
2023-05-23T14:32:50.219Z,47.31
2023-05-23T14:35:16.898Z,47.40
2023-05-23T14:37:46.993Z,48.62
2023-05-23T14:40:14.334Z,47.54
2023-05-23T14:42:44.083Z,48.14
2023-05-23T14:45:11.326Z,48.62
2023-05-23T14:47:39.391Z,47.73
2023-05-23T14:50:06.828Z,47.51
2023-05-23T14:52:33.469Z,46.82
2023-05-23T14:55:01.385Z,46.88
2023-05-23T14:57:28.033Z,48.11
2023-05-23T14:59:54.555Z,47.36
2023-05-23T15:02:23.154Z,48.51
2023-05-23T15:04:49.768Z,49.18
2023-05-23T15:07:18.253Z,47.92
2023-05-23T15:09:45.897Z,48.56
2023-05-23T15:12:12.846Z,48.42
2023-05-23T15:14:39.346Z,50.13
2023-05-23T15:17:07.962Z,50.25
2023-05-23T15:19:37.316Z,50.84
2023-05-23T15:22:04.813Z,50.39
2023-05-23T15:24:31.852Z,50.87
2023-05-23T15:27:11.739Z,51.61
2023-05-23T15:29:46.316Z,51.23
2023-05-23T15:32:13.168Z,51.57
2023-05-23T15:34:39.935Z,51.77
2023-05-23T15:37:06.431Z,51.53
2023-05-23T15:39:33.109Z,51.72
2023-05-23T15:42:02.044Z,51.41
2023-05-23T15:44:28.742Z,51.52
2023-05-23T15:46:55.927Z,52.34
2023-05-23T15:49:26.489Z,52.18
2023-05-23T15:51:54.338Z,51.96
2023-05-23T15:54:21.092Z,51.58
2023-05-23T15:56:47.650Z,52.95
2023-05-23T15:59:14.181Z,52.75
2023-05-23T16:02:00.063Z,51.87
2023-05-23T16:04:26.720Z,52.77
2023-05-23T16:06:54.275Z,52.28
2023-05-23T16:09:20.861Z,52.37
2023-05-23T16:11:54.454Z,51.92
2023-05-23T16:14:20.992Z,52.32
2023-05-23T16:16:54.086Z,53.25
2023-05-23T16:19:20.669Z,53.29
2023-05-23T16:21:47.367Z,54.10
2023-05-23T16:24:14.231Z,54.64
2023-05-23T16:26:42.832Z,54.88
2023-05-23T16:29:11.420Z,54.42
2023-05-23T16:31:38.672Z,55.06
2023-05-23T16:34:12.488Z,55.74
2023-05-23T16:36:39.138Z,55.65
2023-05-23T16:39:06.778Z,56.07
2023-05-23T16:41:34.443Z,56.58
2023-05-23T16:44:24.237Z,57.66
2023-05-23T16:47:04.373Z,58.47
2023-05-23T16:49:31.137Z,57.53
2023-05-23T16:51:57.751Z,58.17
2023-05-23T16:54:24.509Z,58.70
2023-05-23T16:56:51.109Z,58.60
2023-05-23T16:59:18.068Z,58.71
2023-05-23T17:01:44.678Z,58.39
2023-05-23T17:04:11.391Z,58.32
2023-05-23T17:06:38.077Z,58.48
2023-05-23T17:09:05.344Z,58.85
2023-05-23T17:11:32.357Z,59.75
2023-05-23T17:13:58.839Z,59.89
2023-05-23T17:16:33.787Z,60.28
2023-05-23T17:19:04.365Z,61.66
2023-05-23T17:21:31.470Z,61.96
2023-05-23T17:23:57.980Z,61.64
2023-05-23T17:26:24.593Z,61.78
2023-05-23T17:28:52.328Z,62.69
2023-05-23T17:31:19.198Z,62.59
2023-05-23T17:33:46.509Z,63.25
2023-05-23T17:36:14.185Z,64.22
2023-05-23T17:38:41.311Z,64.71
2023-05-23T17:41:07.867Z,65.27
2023-05-23T17:43:34.393Z,65.46
2023-05-23T17:46:00.977Z,67.11
2023-05-23T17:51:12.043Z,67.77
2023-05-23T17:53:41.291Z,69.76
2023-05-23T17:56:11.589Z,71.86
2023-05-23T17:58:39.737Z,70.55
2023-05-23T18:01:07.925Z,70.51
2023-05-23T18:03:34.519Z,72.97
2023-05-23T18:06:02.065Z,74.40
2023-05-23T18:08:35.764Z,74.70
2023-05-23T18:11:02.573Z,74.71
2023-05-23T18:13:30.868Z,72.57
2023-05-23T18:15:58.534Z,73.37
2023-05-23T18:18:25.122Z,73.79
2023-05-23T18:20:52.748Z,73.67
2023-05-23T18:23:19.549Z,72.79
2023-05-23T18:25:46.339Z,73.75
2023-05-23T18:28:18.188Z,72.75
2023-05-23T18:30:45.004Z,72.79
2023-05-23T18:33:11.887Z,74.85
2023-05-23T18:35:38.440Z,75.11
2023-05-23T18:38:05.158Z,75.27
2023-05-23T18:40:36.241Z,77.50
2023-05-23T18:43:02.940Z,76.64
2023-05-23T18:45:29.501Z,77.08
2023-05-23T18:47:56.389Z,76.43
2023-05-23T18:50:23.876Z,77.60
2023-05-23T18:52:50.759Z,79.06
2023-05-23T18:55:17.424Z,80.22
2023-05-23T18:57:44.991Z,80.75
2023-05-23T19:00:12.075Z,78.96
2023-05-23T19:02:44.441Z,80.27
2023-05-23T19:05:12.742Z,81.65
2023-05-23T19:07:39.669Z,81.74
2023-05-23T19:10:06.837Z,81.28
2023-05-23T19:12:33.611Z,82.63
2023-05-23T19:15:00.662Z,81.20
2023-05-23T19:17:27.196Z,84.68
2023-05-23T19:19:55.913Z,84.06
2023-05-23T19:22:23.014Z,84.20
2023-05-23T19:24:49.582Z,83.36
2023-05-23T19:27:16.719Z,83.92
2023-05-23T19:29:43.281Z,84.62
2023-05-23T19:32:09.954Z,84.36
2023-05-23T19:34:36.800Z,84.47
2023-05-23T19:37:08.644Z,87.36
2023-05-23T19:39:45.983Z,87.03
2023-05-23T19:42:14.640Z,86.60
2023-05-23T19:44:41.640Z,86.02
2023-05-23T19:47:12.538Z,85.11
2023-05-23T19:49:39.038Z,87.44
2023-05-23T19:52:14.352Z,88.78
2023-05-23T19:54:41.072Z,87.39
2023-05-23T19:57:07.793Z,87.04
2023-05-23T19:59:34.496Z,86.66
2023-05-23T20:02:01.327Z,85.08
2023-05-23T20:04:28.474Z,87.45
2023-05-23T20:06:56.120Z,85.78
2023-05-23T20:09:23.192Z,86.78
2023-05-23T20:11:49.803Z,86.93
2023-05-23T20:14:16.479Z,85.42
2023-05-23T20:16:43.125Z,85.33
2023-05-23T20:19:10.367Z,88.22
2023-05-23T20:21:39.010Z,87.52
2023-05-23T20:24:05.682Z,86.87
2023-05-23T20:26:32.234Z,86.55
2023-05-23T20:28:59.909Z,87.46
2023-05-23T20:31:26.487Z,86.37
2023-05-23T20:33:53.226Z,86.96
2023-05-23T20:36:21.041Z,87.69
2023-05-23T20:38:47.965Z,87.76
2023-05-23T20:41:14.733Z,87.85
2023-05-23T20:43:41.420Z,89.84
2023-05-23T20:46:11.725Z,90.50
2023-05-23T20:48:39.093Z,88.69
2023-05-23T20:51:07.486Z,89.32
2023-05-23T20:53:34.959Z,91.99
2023-05-23T20:56:02.637Z,91.10
2023-05-23T20:58:31.698Z,89.26
2023-05-23T21:00:58.844Z,88.54
2023-05-23T21:03:25.692Z,89.42
2023-05-23T21:05:52.411Z,92.21
2023-05-23T21:08:19.091Z,89.52
2023-05-23T21:10:49.855Z,89.49
2023-05-23T21:13:18.187Z,91.08
2023-05-23T21:15:44.872Z,89.99
2023-05-23T21:18:12.551Z,91.22
2023-05-23T21:20:39.099Z,90.71
2023-05-23T21:23:05.687Z,89.59
2023-05-23T21:25:32.240Z,88.75
2023-05-23T21:27:58.766Z,93.61
2023-05-23T21:30:39.119Z,95.69
2023-05-23T21:33:06.439Z,96.25
2023-05-23T21:35:33.012Z,96.57
2023-05-23T21:37:59.580Z,97.14
2023-05-23T21:40:27.061Z,98.07
2023-05-23T21:42:53.677Z,100.00
2023-05-23T21:45:20.385Z,100.00
2023-05-23T21:47:48.086Z,100.00
2023-05-23T21:50:14.729Z,100.00
2023-05-23T21:52:41.265Z,100.00
2023-05-23T21:55:07.967Z,100.00
2023-05-23T21:57:34.558Z,100.00
2023-05-23T22:00:01.128Z,100.00
2023-05-23T22:02:27.814Z,100.00
2023-05-23T22:04:54.488Z,100.00
2023-05-23T22:07:25.229Z,100.00
2023-05-23T22:09:53.462Z,100.00
2023-05-23T22:12:20.493Z,100.00
2023-05-23T22:14:47.335Z,100.00
2023-05-23T22:17:14.331Z,100.00
2023-05-23T22:19:41.772Z,100.00
2023-05-23T22:22:09.807Z,100.00
2023-05-23T22:24:36.656Z,100.00
2023-05-23T22:27:04.266Z,100.00
2023-05-23T22:29:31.043Z,100.00
2023-05-23T22:31:57.719Z,100.00
2023-05-23T22:34:24.546Z,100.00
2023-05-23T22:36:52.140Z,100.00
2023-05-23T22:39:24.770Z,100.00
2023-05-23T22:41:51.361Z,100.00
2023-05-23T22:44:17.971Z,100.00
2023-05-23T22:46:44.615Z,100.00
2023-05-23T22:49:22.354Z,100.00
2023-05-23T22:51:48.963Z,100.00
2023-05-23T22:54:15.762Z,100.00
2023-05-23T22:56:48.430Z,100.00
2023-05-23T22:59:14.994Z,100.00
2023-05-23T23:01:41.675Z,100.00
2023-05-23T23:04:08.241Z,100.00
2023-05-23T23:06:35.632Z,100.00
2023-05-23T23:09:02.231Z,100.00
2023-05-23T23:11:28.823Z,100.00
2023-05-23T23:13:55.412Z,100.00
2023-05-23T23:16:22.101Z,100.00
2023-05-23T23:18:49.099Z,100.00
2023-05-23T23:21:15.826Z,100.00
2023-05-23T23:23:42.521Z,100.00
2023-05-23T23:26:09.142Z,100.00
2023-05-23T23:28:35.782Z,100.00
2023-05-23T23:31:02.475Z,100.00
2023-05-23T23:33:29.123Z,100.00
2023-05-23T23:35:55.873Z,100.00
2023-05-23T23:38:22.415Z,100.00
2023-05-23T23:40:49.153Z,100.00
2023-05-23T23:43:15.771Z,100.00
2023-05-23T23:45:42.395Z,100.00
2023-05-23T23:48:09.130Z,100.00
2023-05-23T23:50:35.798Z,100.00
2023-05-23T23:53:02.407Z,100.00
2023-05-23T23:55:29.061Z,100.00
2023-05-23T23:57:55.715Z,100.00
